sensor_id;sensor_type;location;lat;lon;timestamp;P1;durP1;ratioP1;P2;durP2;ratioP2
691;SDS011;70475;50.084;8.576;2023-06-22T00:00:11;5.73;;;5.10;;
691;SDS011;70475;50.084;8.576;2023-06-22T00:02:40;5.00;;;4.60;;
691;SDS011;70475;50.084;8.576;2023-06-22T00:05:08;5.40;;;4.90;;
691;SDS011;70475;50.084;8.576;2023-06-22T00:07:35;5.93;;;5.43;;
691;SDS011;70475;50.084;8.576;2023-06-22T00:10:03;5.93;;;5.33;;
691;SDS011;70475;50.084;8.576;2023-06-22T00:12:31;5.80;;;5.10;;
691;SDS011;70475;50.084;8.576;2023-06-22T00:14:59;5.57;;;4.80;;
691;SDS011;70475;50.084;8.576;2023-06-22T00:17:27;6.60;;;5.43;;
691;SDS011;70475;50.084;8.576;2023-06-22T00:19:56;7.00;;;5.30;;
691;SDS011;70475;50.084;8.576;2023-06-22T00:22:24;5.47;;;4.97;;
691;SDS011;70475;50.084;8.576;2023-06-22T00:24:55;5.60;;;5.10;;
691;SDS011;70475;50.084;8.576;2023-06-22T00:27:23;4.93;;;4.53;;
691;SDS011;70475;50.084;8.576;2023-06-22T00:29:51;5.23;;;4.73;;
691;SDS011;70475;50.084;8.576;2023-06-22T00:32:21;5.90;;;5.30;;
691;SDS011;70475;50.084;8.576;2023-06-22T00:34:49;7.93;;;4.93;;
691;SDS011;70475;50.084;8.576;2023-06-22T00:37:18;5.57;;;5.03;;
691;SDS011;70475;50.084;8.576;2023-06-22T00:39:48;5.60;;;5.10;;
691;SDS011;70475;50.084;8.576;2023-06-22T00:42:16;5.83;;;5.23;;
691;SDS011;70475;50.084;8.576;2023-06-22T00:44:44;5.50;;;5.00;;
691;SDS011;70475;50.084;8.576;2023-06-22T00:47:12;6.30;;;4.80;;
691;SDS011;70475;50.084;8.576;2023-06-22T00:49:42;5.20;;;4.70;;
691;SDS011;70475;50.084;8.576;2023-06-22T00:52:09;6.20;;;5.13;;
691;SDS011;70475;50.084;8.576;2023-06-22T00:54:41;6.60;;;4.73;;
691;SDS011;70475;50.084;8.576;2023-06-22T00:57:11;5.83;;;5.07;;
691;SDS011;70475;50.084;8.576;2023-06-22T00:59:42;5.60;;;5.00;;
691;SDS011;70475;50.084;8.576;2023-06-22T01:02:09;7.37;;;5.80;;
691;SDS011;70475;50.084;8.576;2023-06-22T01:04:37;8.60;;;5.37;;
691;SDS011;70475;50.084;8.576;2023-06-22T01:07:07;5.97;;;5.37;;
691;SDS011;70475;50.084;8.576;2023-06-22T01:09:42;5.33;;;4.83;;
691;SDS011;70475;50.084;8.576;2023-06-22T01:12:18;5.83;;;5.30;;
691;SDS011;70475;50.084;8.576;2023-06-22T01:14:49;8.60;;;7.10;;
691;SDS011;70475;50.084;8.576;2023-06-22T01:17:20;7.50;;;5.60;;
691;SDS011;70475;50.084;8.576;2023-06-22T01:19:49;6.27;;;5.70;;
691;SDS011;70475;50.084;8.576;2023-06-22T01:22:22;7.43;;;6.63;;
691;SDS011;70475;50.084;8.576;2023-06-22T01:24:57;6.33;;;5.73;;
691;SDS011;70475;50.084;8.576;2023-06-22T01:27:36;6.30;;;5.70;;
691;SDS011;70475;50.084;8.576;2023-06-22T01:30:15;6.53;;;5.70;;
691;SDS011;70475;50.084;8.576;2023-06-22T01:32:45;6.80;;;6.20;;
691;SDS011;70475;50.084;8.576;2023-06-22T01:35:15;6.77;;;5.80;;
691;SDS011;70475;50.084;8.576;2023-06-22T01:37:44;6.67;;;6.07;;
691;SDS011;70475;50.084;8.576;2023-06-22T01:40:11;7.27;;;6.57;;
691;SDS011;70475;50.084;8.576;2023-06-22T01:42:40;7.57;;;6.87;;
691;SDS011;70475;50.084;8.576;2023-06-22T01:45:10;7.33;;;6.63;;
691;SDS011;70475;50.084;8.576;2023-06-22T01:47:40;8.43;;;6.67;;
691;SDS011;70475;50.084;8.576;2023-06-22T01:50:09;9.53;;;7.50;;
691;SDS011;70475;50.084;8.576;2023-06-22T01:52:37;7.50;;;6.80;;
691;SDS011;70475;50.084;8.576;2023-06-22T01:55:05;7.33;;;6.63;;
691;SDS011;70475;50.084;8.576;2023-06-22T01:57:34;7.57;;;6.27;;
691;SDS011;70475;50.084;8.576;2023-06-22T02:00:03;7.83;;;6.83;;
691;SDS011;70475;50.084;8.576;2023-06-22T02:02:36;7.97;;;6.70;;
691;SDS011;70475;50.084;8.576;2023-06-22T02:05:09;7.33;;;6.63;;
691;SDS011;70475;50.084;8.576;2023-06-22T02:07:39;7.40;;;6.70;;
691;SDS011;70475;50.084;8.576;2023-06-22T02:10:11;6.90;;;6.23;;
691;SDS011;70475;50.084;8.576;2023-06-22T02:12:42;7.60;;;6.77;;
691;SDS011;70475;50.084;8.576;2023-06-22T02:15:11;7.10;;;6.33;;
691;SDS011;70475;50.084;8.576;2023-06-22T02:17:40;6.93;;;5.93;;
691;SDS011;70475;50.084;8.576;2023-06-22T02:20:13;6.77;;;6.07;;
691;SDS011;70475;50.084;8.576;2023-06-22T02:22:41;7.37;;;6.67;;
691;SDS011;70475;50.084;8.576;2023-06-22T02:25:09;7.57;;;6.87;;
691;SDS011;70475;50.084;8.576;2023-06-22T02:27:37;11.40;;;7.30;;
691;SDS011;70475;50.084;8.576;2023-06-22T02:30:07;10.30;;;7.47;;
691;SDS011;70475;50.084;8.576;2023-06-22T02:32:35;8.23;;;7.27;;
691;SDS011;70475;50.084;8.576;2023-06-22T02:35:03;6.90;;;6.30;;
691;SDS011;70475;50.084;8.576;2023-06-22T02:37:33;9.70;;;7.00;;
691;SDS011;70475;50.084;8.576;2023-06-22T02:40:05;7.07;;;6.17;;
691;SDS011;70475;50.084;8.576;2023-06-22T02:42:35;6.43;;;5.80;;
691;SDS011;70475;50.084;8.576;2023-06-22T02:45:02;7.67;;;6.87;;
691;SDS011;70475;50.084;8.576;2023-06-22T02:47:30;7.10;;;6.40;;
691;SDS011;70475;50.084;8.576;2023-06-22T02:49:58;6.50;;;5.83;;
691;SDS011;70475;50.084;8.576;2023-06-22T02:52:26;7.57;;;6.87;;
691;SDS011;70475;50.084;8.576;2023-06-22T02:54:55;7.30;;;6.60;;
691;SDS011;70475;50.084;8.576;2023-06-22T02:57:23;8.33;;;7.43;;
691;SDS011;70475;50.084;8.576;2023-06-22T02:59:50;7.47;;;6.77;;
691;SDS011;70475;50.084;8.576;2023-06-22T03:02:18;9.07;;;5.60;;
691;SDS011;70475;50.084;8.576;2023-06-22T03:04:47;7.70;;;6.90;;
691;SDS011;70475;50.084;8.576;2023-06-22T03:07:15;8.17;;;6.90;;
691;SDS011;70475;50.084;8.576;2023-06-22T03:09:44;7.77;;;6.97;;
691;SDS011;70475;50.084;8.576;2023-06-22T03:12:13;7.70;;;6.60;;
691;SDS011;70475;50.084;8.576;2023-06-22T03:14:40;7.80;;;7.03;;
691;SDS011;70475;50.084;8.576;2023-06-22T03:17:08;7.80;;;7.00;;
691;SDS011;70475;50.084;8.576;2023-06-22T03:19:37;7.77;;;6.97;;
691;SDS011;70475;50.084;8.576;2023-06-22T03:22:04;7.20;;;6.50;;
691;SDS011;70475;50.084;8.576;2023-06-22T03:24:33;7.70;;;7.00;;
691;SDS011;70475;50.084;8.576;2023-06-22T03:27:00;10.80;;;7.80;;
691;SDS011;70475;50.084;8.576;2023-06-22T03:29:32;7.67;;;6.93;;
691;SDS011;70475;50.084;8.576;2023-06-22T03:32:00;8.30;;;7.50;;
691;SDS011;70475;50.084;8.576;2023-06-22T03:34:28;7.03;;;6.33;;
691;SDS011;70475;50.084;8.576;2023-06-22T03:37:00;8.77;;;7.90;;
691;SDS011;70475;50.084;8.576;2023-06-22T03:39:27;10.23;;;7.53;;
691;SDS011;70475;50.084;8.576;2023-06-22T03:41:55;9.47;;;7.37;;
691;SDS011;70475;50.084;8.576;2023-06-22T03:44:22;7.00;;;6.40;;
691;SDS011;70475;50.084;8.576;2023-06-22T03:46:51;7.40;;;6.73;;
691;SDS011;70475;50.084;8.576;2023-06-22T03:49:19;8.57;;;6.67;;
691;SDS011;70475;50.084;8.576;2023-06-22T03:51:47;8.00;;;6.90;;
691;SDS011;70475;50.084;8.576;2023-06-22T03:54:14;7.67;;;6.80;;
691;SDS011;70475;50.084;8.576;2023-06-22T03:56:42;6.63;;;5.93;;
691;SDS011;70475;50.084;8.576;2023-06-22T03:59:09;7.77;;;6.23;;
691;SDS011;70475;50.084;8.576;2023-06-22T04:01:37;7.83;;;7.13;;
691;SDS011;70475;50.084;8.576;2023-06-22T04:04:05;10.40;;;6.80;;
691;SDS011;70475;50.084;8.576;2023-06-22T04:06:33;7.30;;;6.40;;
691;SDS011;70475;50.084;8.576;2023-06-22T04:09:01;7.93;;;7.13;;
691;SDS011;70475;50.084;8.576;2023-06-22T04:11:29;8.23;;;7.10;;
691;SDS011;70475;50.084;8.576;2023-06-22T04:13:57;7.90;;;7.20;;
691;SDS011;70475;50.084;8.576;2023-06-22T04:16:24;9.43;;;6.90;;
691;SDS011;70475;50.084;8.576;2023-06-22T04:18:52;8.33;;;7.60;;
691;SDS011;70475;50.084;8.576;2023-06-22T04:21:21;7.70;;;6.90;;
691;SDS011;70475;50.084;8.576;2023-06-22T04:23:48;7.93;;;7.03;;
691;SDS011;70475;50.084;8.576;2023-06-22T04:26:16;8.27;;;6.90;;
691;SDS011;70475;50.084;8.576;2023-06-22T04:28:43;8.50;;;7.57;;
691;SDS011;70475;50.084;8.576;2023-06-22T04:31:16;7.43;;;6.70;;
691;SDS011;70475;50.084;8.576;2023-06-22T04:33:44;9.97;;;8.07;;
691;SDS011;70475;50.084;8.576;2023-06-22T04:36:12;11.37;;;8.73;;
691;SDS011;70475;50.084;8.576;2023-06-22T04:38:42;12.50;;;6.97;;
691;SDS011;70475;50.084;8.576;2023-06-22T04:41:10;8.90;;;7.53;;
691;SDS011;70475;50.084;8.576;2023-06-22T04:43:40;13.00;;;8.57;;
691;SDS011;70475;50.084;8.576;2023-06-22T04:46:07;8.07;;;7.33;;
691;SDS011;70475;50.084;8.576;2023-06-22T04:48:35;8.43;;;7.00;;
691;SDS011;70475;50.084;8.576;2023-06-22T04:51:03;8.40;;;7.50;;
691;SDS011;70475;50.084;8.576;2023-06-22T04:53:31;8.57;;;7.77;;
691;SDS011;70475;50.084;8.576;2023-06-22T04:56:00;9.40;;;8.13;;
691;SDS011;70475;50.084;8.576;2023-06-22T04:58:30;9.27;;;8.37;;
691;SDS011;70475;50.084;8.576;2023-06-22T05:00:58;7.57;;;6.87;;
691;SDS011;70475;50.084;8.576;2023-06-22T05:03:26;8.33;;;7.50;;
691;SDS011;70475;50.084;8.576;2023-06-22T05:05:54;8.67;;;7.50;;
691;SDS011;70475;50.084;8.576;2023-06-22T05:08:21;10.20;;;8.37;;
691;SDS011;70475;50.084;8.576;2023-06-22T05:10:52;11.40;;;7.47;;
691;SDS011;70475;50.084;8.576;2023-06-22T05:13:32;9.03;;;8.23;;
691;SDS011;70475;50.084;8.576;2023-06-22T05:16:00;9.40;;;8.40;;
691;SDS011;70475;50.084;8.576;2023-06-22T05:18:28;9.60;;;8.60;;
691;SDS011;70475;50.084;8.576;2023-06-22T05:20:57;9.50;;;8.50;;
691;SDS011;70475;50.084;8.576;2023-06-22T05:23:25;9.83;;;7.60;;
691;SDS011;70475;50.084;8.576;2023-06-22T05:25:53;9.17;;;8.20;;
691;SDS011;70475;50.084;8.576;2023-06-22T05:28:23;8.30;;;7.50;;
691;SDS011;70475;50.084;8.576;2023-06-22T05:30:52;9.60;;;7.80;;
691;SDS011;70475;50.084;8.576;2023-06-22T05:33:20;8.60;;;7.73;;
691;SDS011;70475;50.084;8.576;2023-06-22T05:35:47;9.83;;;8.53;;
691;SDS011;70475;50.084;8.576;2023-06-22T05:38:15;8.90;;;8.00;;
691;SDS011;70475;50.084;8.576;2023-06-22T05:40:42;9.03;;;8.17;;
691;SDS011;70475;50.084;8.576;2023-06-22T05:43:10;9.70;;;8.30;;
691;SDS011;70475;50.084;8.576;2023-06-22T05:45:38;8.97;;;8.10;;
691;SDS011;70475;50.084;8.576;2023-06-22T05:48:07;8.13;;;7.33;;
691;SDS011;70475;50.084;8.576;2023-06-22T05:50:34;10.53;;;8.90;;
691;SDS011;70475;50.084;8.576;2023-06-22T05:53:02;8.50;;;7.60;;
691;SDS011;70475;50.084;8.576;2023-06-22T05:55:30;9.80;;;8.90;;
691;SDS011;70475;50.084;8.576;2023-06-22T05:58:00;9.53;;;8.50;;
691;SDS011;70475;50.084;8.576;2023-06-22T06:00:29;9.70;;;7.70;;
691;SDS011;70475;50.084;8.576;2023-06-22T06:02:57;9.47;;;8.67;;
691;SDS011;70475;50.084;8.576;2023-06-22T06:05:31;9.40;;;8.47;;
691;SDS011;70475;50.084;8.576;2023-06-22T06:07:59;10.87;;;8.60;;
691;SDS011;70475;50.084;8.576;2023-06-22T06:10:27;8.80;;;7.90;;
691;SDS011;70475;50.084;8.576;2023-06-22T06:12:56;11.60;;;7.50;;
691;SDS011;70475;50.084;8.576;2023-06-22T06:15:24;9.23;;;8.27;;
691;SDS011;70475;50.084;8.576;2023-06-22T06:17:52;8.77;;;7.90;;
691;SDS011;70475;50.084;8.576;2023-06-22T06:20:21;11.10;;;8.80;;
691;SDS011;70475;50.084;8.576;2023-06-22T06:22:51;10.50;;;8.63;;
691;SDS011;70475;50.084;8.576;2023-06-22T06:25:19;8.60;;;7.80;;
691;SDS011;70475;50.084;8.576;2023-06-22T06:27:48;9.67;;;8.67;;
691;SDS011;70475;50.084;8.576;2023-06-22T06:30:17;10.17;;;8.80;;
691;SDS011;70475;50.084;8.576;2023-06-22T06:32:46;9.17;;;8.23;;
691;SDS011;70475;50.084;8.576;2023-06-22T06:35:14;9.03;;;7.97;;
691;SDS011;70475;50.084;8.576;2023-06-22T06:37:43;9.53;;;8.57;;
691;SDS011;70475;50.084;8.576;2023-06-22T06:40:14;11.00;;;9.40;;
691;SDS011;70475;50.084;8.576;2023-06-22T06:42:43;9.33;;;8.53;;
691;SDS011;70475;50.084;8.576;2023-06-22T06:45:12;10.43;;;8.23;;
691;SDS011;70475;50.084;8.576;2023-06-22T06:47:40;12.00;;;8.60;;
691;SDS011;70475;50.084;8.576;2023-06-22T06:50:08;8.43;;;7.63;;
691;SDS011;70475;50.084;8.576;2023-06-22T06:52:36;10.80;;;8.53;;
691;SDS011;70475;50.084;8.576;2023-06-22T06:55:05;9.37;;;8.40;;
691;SDS011;70475;50.084;8.576;2023-06-22T06:57:36;11.50;;;8.83;;
691;SDS011;70475;50.084;8.576;2023-06-22T07:00:05;9.10;;;8.20;;
691;SDS011;70475;50.084;8.576;2023-06-22T07:02:37;9.40;;;8.43;;
691;SDS011;70475;50.084;8.576;2023-06-22T07:05:05;9.23;;;8.30;;
691;SDS011;70475;50.084;8.576;2023-06-22T07:07:33;12.70;;;8.27;;
691;SDS011;70475;50.084;8.576;2023-06-22T07:10:04;10.80;;;8.43;;
691;SDS011;70475;50.084;8.576;2023-06-22T07:12:32;10.30;;;8.90;;
691;SDS011;70475;50.084;8.576;2023-06-22T07:15:02;9.60;;;8.10;;
691;SDS011;70475;50.084;8.576;2023-06-22T07:17:30;9.27;;;8.27;;
691;SDS011;70475;50.084;8.576;2023-06-22T07:19:58;13.30;;;8.47;;
691;SDS011;70475;50.084;8.576;2023-06-22T07:22:25;10.23;;;9.20;;
691;SDS011;70475;50.084;8.576;2023-06-22T07:24:53;8.43;;;7.50;;
691;SDS011;70475;50.084;8.576;2023-06-22T07:27:20;7.90;;;7.20;;
691;SDS011;70475;50.084;8.576;2023-06-22T07:29:48;11.13;;;9.93;;
691;SDS011;70475;50.084;8.576;2023-06-22T07:32:17;9.53;;;8.60;;
691;SDS011;70475;50.084;8.576;2023-06-22T07:34:44;9.93;;;8.53;;
691;SDS011;70475;50.084;8.576;2023-06-22T07:37:12;11.20;;;8.70;;
691;SDS011;70475;50.084;8.576;2023-06-22T07:39:39;9.77;;;8.20;;
691;SDS011;70475;50.084;8.576;2023-06-22T07:42:08;9.43;;;8.60;;
691;SDS011;70475;50.084;8.576;2023-06-22T07:44:36;8.80;;;7.90;;
691;SDS011;70475;50.084;8.576;2023-06-22T07:47:04;9.10;;;8.20;;
691;SDS011;70475;50.084;8.576;2023-06-22T07:49:33;9.07;;;8.17;;
691;SDS011;70475;50.084;8.576;2023-06-22T07:52:00;10.43;;;9.43;;
691;SDS011;70475;50.084;8.576;2023-06-22T07:54:32;9.07;;;8.07;;
691;SDS011;70475;50.084;8.576;2023-06-22T07:56:59;10.40;;;9.40;;
691;SDS011;70475;50.084;8.576;2023-06-22T07:59:27;10.23;;;9.17;;
691;SDS011;70475;50.084;8.576;2023-06-22T08:01:55;9.73;;;8.73;;
691;SDS011;70475;50.084;8.576;2023-06-22T08:04:22;11.10;;;9.00;;
691;SDS011;70475;50.084;8.576;2023-06-22T08:06:51;11.50;;;9.07;;
691;SDS011;70475;50.084;8.576;2023-06-22T08:09:19;9.60;;;8.50;;
691;SDS011;70475;50.084;8.576;2023-06-22T08:11:46;9.87;;;8.83;;
691;SDS011;70475;50.084;8.576;2023-06-22T08:14:15;9.87;;;8.80;;
691;SDS011;70475;50.084;8.576;2023-06-22T08:16:42;11.60;;;9.43;;
691;SDS011;70475;50.084;8.576;2023-06-22T08:19:10;10.17;;;8.73;;
691;SDS011;70475;50.084;8.576;2023-06-22T08:21:37;10.97;;;9.57;;
691;SDS011;70475;50.084;8.576;2023-06-22T08:24:06;10.63;;;8.27;;
691;SDS011;70475;50.084;8.576;2023-06-22T08:26:34;11.00;;;8.87;;
691;SDS011;70475;50.084;8.576;2023-06-22T08:29:03;9.87;;;8.87;;
691;SDS011;70475;50.084;8.576;2023-06-22T08:31:31;9.60;;;8.70;;
691;SDS011;70475;50.084;8.576;2023-06-22T08:34:00;10.13;;;9.13;;
691;SDS011;70475;50.084;8.576;2023-06-22T08:36:28;9.67;;;8.70;;
691;SDS011;70475;50.084;8.576;2023-06-22T08:39:01;9.80;;;8.80;;
691;SDS011;70475;50.084;8.576;2023-06-22T08:41:30;12.40;;;8.23;;
691;SDS011;70475;50.084;8.576;2023-06-22T08:43:58;9.43;;;8.60;;
691;SDS011;70475;50.084;8.576;2023-06-22T08:46:25;9.87;;;8.97;;
691;SDS011;70475;50.084;8.576;2023-06-22T08:48:56;15.20;;;8.27;;
691;SDS011;70475;50.084;8.576;2023-06-22T08:51:24;9.43;;;8.53;;
691;SDS011;70475;50.084;8.576;2023-06-22T08:53:52;8.30;;;7.57;;
691;SDS011;70475;50.084;8.576;2023-06-22T08:56:19;10.07;;;9.10;;
691;SDS011;70475;50.084;8.576;2023-06-22T08:58:48;10.53;;;8.77;;
691;SDS011;70475;50.084;8.576;2023-06-22T09:01:16;8.77;;;7.60;;
691;SDS011;70475;50.084;8.576;2023-06-22T09:03:44;10.43;;;9.43;;
691;SDS011;70475;50.084;8.576;2023-06-22T09:06:20;13.43;;;10.73;;
691;SDS011;70475;50.084;8.576;2023-06-22T09:08:48;9.47;;;8.57;;
691;SDS011;70475;50.084;8.576;2023-06-22T09:11:16;11.30;;;10.17;;
691;SDS011;70475;50.084;8.576;2023-06-22T09:13:43;10.43;;;9.53;;
691;SDS011;70475;50.084;8.576;2023-06-22T09:16:13;9.90;;;8.90;;
691;SDS011;70475;50.084;8.576;2023-06-22T09:18:41;10.27;;;9.27;;
691;SDS011;70475;50.084;8.576;2023-06-22T09:21:08;8.70;;;7.90;;
691;SDS011;70475;50.084;8.576;2023-06-22T09:23:36;10.23;;;9.30;;
691;SDS011;70475;50.084;8.576;2023-06-22T09:26:04;8.93;;;8.13;;
691;SDS011;70475;50.084;8.576;2023-06-22T09:28:32;8.70;;;7.87;;
691;SDS011;70475;50.084;8.576;2023-06-22T09:31:00;9.90;;;8.90;;
691;SDS011;70475;50.084;8.576;2023-06-22T09:33:29;10.17;;;9.17;;
691;SDS011;70475;50.084;8.576;2023-06-22T09:35:57;9.17;;;8.30;;
691;SDS011;70475;50.084;8.576;2023-06-22T09:38:24;10.53;;;8.83;;
691;SDS011;70475;50.084;8.576;2023-06-22T09:40:52;10.23;;;9.33;;
691;SDS011;70475;50.084;8.576;2023-06-22T09:43:19;10.20;;;9.10;;
691;SDS011;70475;50.084;8.576;2023-06-22T09:45:47;9.30;;;8.40;;
691;SDS011;70475;50.084;8.576;2023-06-22T09:48:14;9.57;;;8.57;;
691;SDS011;70475;50.084;8.576;2023-06-22T09:50:43;12.30;;;8.47;;
691;SDS011;70475;50.084;8.576;2023-06-22T09:53:11;9.30;;;8.40;;
691;SDS011;70475;50.084;8.576;2023-06-22T09:55:38;9.13;;;8.40;;
691;SDS011;70475;50.084;8.576;2023-06-22T09:58:06;9.90;;;8.90;;
691;SDS011;70475;50.084;8.576;2023-06-22T10:00:33;9.63;;;8.63;;
691;SDS011;70475;50.084;8.576;2023-06-22T10:03:01;8.87;;;7.97;;
691;SDS011;70475;50.084;8.576;2023-06-22T10:05:29;10.03;;;9.03;;
691;SDS011;70475;50.084;8.576;2023-06-22T10:07:59;9.63;;;8.47;;
691;SDS011;70475;50.084;8.576;2023-06-22T10:10:27;9.40;;;8.20;;
691;SDS011;70475;50.084;8.576;2023-06-22T10:12:55;10.43;;;7.90;;
691;SDS011;70475;50.084;8.576;2023-06-22T10:15:24;9.37;;;8.57;;
691;SDS011;70475;50.084;8.576;2023-06-22T10:17:53;8.53;;;7.73;;
691;SDS011;70475;50.084;8.576;2023-06-22T10:20:21;8.77;;;8.00;;
691;SDS011;70475;50.084;8.576;2023-06-22T10:22:48;7.77;;;6.97;;
691;SDS011;70475;50.084;8.576;2023-06-22T10:25:18;6.97;;;6.37;;
691;SDS011;70475;50.084;8.576;2023-06-22T10:27:46;8.10;;;7.30;;
691;SDS011;70475;50.084;8.576;2023-06-22T10:30:14;8.47;;;7.20;;
691;SDS011;70475;50.084;8.576;2023-06-22T10:32:42;7.60;;;6.90;;
691;SDS011;70475;50.084;8.576;2023-06-22T10:35:10;7.80;;;6.93;;
691;SDS011;70475;50.084;8.576;2023-06-22T10:37:40;6.70;;;6.03;;
691;SDS011;70475;50.084;8.576;2023-06-22T10:40:09;7.90;;;7.10;;
691;SDS011;70475;50.084;8.576;2023-06-22T10:42:39;8.20;;;7.40;;
691;SDS011;70475;50.084;8.576;2023-06-22T10:45:07;7.53;;;6.70;;
691;SDS011;70475;50.084;8.576;2023-06-22T10:47:35;7.87;;;7.10;;
691;SDS011;70475;50.084;8.576;2023-06-22T10:50:04;8.83;;;7.80;;
691;SDS011;70475;50.084;8.576;2023-06-22T10:52:32;7.90;;;6.67;;
691;SDS011;70475;50.084;8.576;2023-06-22T10:55:00;7.53;;;6.83;;
691;SDS011;70475;50.084;8.576;2023-06-22T10:57:27;7.50;;;6.90;;
691;SDS011;70475;50.084;8.576;2023-06-22T10:59:56;7.80;;;7.00;;
691;SDS011;70475;50.084;8.576;2023-06-22T11:02:24;7.37;;;6.67;;
691;SDS011;70475;50.084;8.576;2023-06-22T11:04:54;7.00;;;6.23;;
691;SDS011;70475;50.084;8.576;2023-06-22T11:07:22;7.60;;;6.90;;
691;SDS011;70475;50.084;8.576;2023-06-22T11:09:50;8.37;;;7.40;;
691;SDS011;70475;50.084;8.576;2023-06-22T11:12:17;7.70;;;7.00;;
691;SDS011;70475;50.084;8.576;2023-06-22T11:14:45;9.83;;;7.77;;
691;SDS011;70475;50.084;8.576;2023-06-22T11:17:14;7.40;;;6.67;;
691;SDS011;70475;50.084;8.576;2023-06-22T11:19:41;7.40;;;6.70;;
691;SDS011;70475;50.084;8.576;2023-06-22T11:22:09;7.37;;;6.67;;
691;SDS011;70475;50.084;8.576;2023-06-22T11:24:36;7.43;;;6.73;;
691;SDS011;70475;50.084;8.576;2023-06-22T11:27:04;7.80;;;7.10;;
691;SDS011;70475;50.084;8.576;2023-06-22T11:29:32;8.10;;;7.30;;
691;SDS011;70475;50.084;8.576;2023-06-22T11:32:04;6.67;;;6.10;;
691;SDS011;70475;50.084;8.576;2023-06-22T11:34:34;7.07;;;6.47;;
691;SDS011;70475;50.084;8.576;2023-06-22T11:37:02;6.70;;;6.00;;
691;SDS011;70475;50.084;8.576;2023-06-22T11:39:30;7.60;;;7.00;;
691;SDS011;70475;50.084;8.576;2023-06-22T11:42:08;7.90;;;7.00;;
691;SDS011;70475;50.084;8.576;2023-06-22T11:44:36;9.70;;;7.50;;
691;SDS011;70475;50.084;8.576;2023-06-22T11:47:04;7.10;;;6.50;;
691;SDS011;70475;50.084;8.576;2023-06-22T11:49:32;8.03;;;7.23;;
691;SDS011;70475;50.084;8.576;2023-06-22T11:52:01;7.33;;;6.67;;
691;SDS011;70475;50.084;8.576;2023-06-22T11:54:29;7.10;;;6.50;;
691;SDS011;70475;50.084;8.576;2023-06-22T11:56:57;8.23;;;7.00;;
691;SDS011;70475;50.084;8.576;2023-06-22T11:59:24;7.90;;;6.93;;
691;SDS011;70475;50.084;8.576;2023-06-22T12:01:52;7.23;;;6.30;;
691;SDS011;70475;50.084;8.576;2023-06-22T12:04:20;13.27;;;6.80;;
691;SDS011;70475;50.084;8.576;2023-06-22T12:06:47;7.60;;;6.67;;
691;SDS011;70475;50.084;8.576;2023-06-22T12:09:16;9.10;;;6.87;;
691;SDS011;70475;50.084;8.576;2023-06-22T12:11:44;7.70;;;6.90;;
691;SDS011;70475;50.084;8.576;2023-06-22T12:14:11;14.00;;;6.97;;
691;SDS011;70475;50.084;8.576;2023-06-22T12:16:39;8.23;;;6.40;;
691;SDS011;70475;50.084;8.576;2023-06-22T12:19:06;7.30;;;5.70;;
691;SDS011;70475;50.084;8.576;2023-06-22T12:21:37;9.53;;;7.50;;
691;SDS011;70475;50.084;8.576;2023-06-22T12:24:05;11.97;;;6.83;;
691;SDS011;70475;50.084;8.576;2023-06-22T12:26:34;7.33;;;6.60;;
691;SDS011;70475;50.084;8.576;2023-06-22T12:29:02;7.93;;;6.63;;
691;SDS011;70475;50.084;8.576;2023-06-22T12:31:29;6.93;;;6.10;;
691;SDS011;70475;50.084;8.576;2023-06-22T12:33:57;9.10;;;6.80;;
691;SDS011;70475;50.084;8.576;2023-06-22T12:36:25;8.00;;;6.80;;
691;SDS011;70475;50.084;8.576;2023-06-22T12:38:52;9.93;;;7.40;;
691;SDS011;70475;50.084;8.576;2023-06-22T12:41:21;11.40;;;7.20;;
691;SDS011;70475;50.084;8.576;2023-06-22T12:43:50;10.60;;;6.80;;
691;SDS011;70475;50.084;8.576;2023-06-22T12:46:18;8.50;;;6.30;;
691;SDS011;70475;50.084;8.576;2023-06-22T12:48:46;10.57;;;7.23;;
691;SDS011;70475;50.084;8.576;2023-06-22T12:51:19;10.50;;;7.30;;
691;SDS011;70475;50.084;8.576;2023-06-22T12:53:48;7.27;;;6.57;;
691;SDS011;70475;50.084;8.576;2023-06-22T12:56:15;8.53;;;6.63;;
691;SDS011;70475;50.084;8.576;2023-06-22T12:58:43;8.37;;;7.57;;
691;SDS011;70475;50.084;8.576;2023-06-22T13:01:12;8.57;;;7.17;;
691;SDS011;70475;50.084;8.576;2023-06-22T13:03:41;7.93;;;7.13;;
691;SDS011;70475;50.084;8.576;2023-06-22T13:06:09;8.60;;;7.70;;
691;SDS011;70475;50.084;8.576;2023-06-22T13:08:36;8.13;;;7.00;;
691;SDS011;70475;50.084;8.576;2023-06-22T13:11:07;9.90;;;8.50;;
691;SDS011;70475;50.084;8.576;2023-06-22T13:13:34;7.67;;;6.97;;
691;SDS011;70475;50.084;8.576;2023-06-22T13:16:02;10.70;;;7.43;;
691;SDS011;70475;50.084;8.576;2023-06-22T13:18:31;10.00;;;8.07;;
691;SDS011;70475;50.084;8.576;2023-06-22T13:21:00;9.40;;;7.63;;
691;SDS011;70475;50.084;8.576;2023-06-22T13:23:27;10.50;;;6.87;;
691;SDS011;70475;50.084;8.576;2023-06-22T13:25:55;8.60;;;7.27;;
691;SDS011;70475;50.084;8.576;2023-06-22T13:28:22;9.23;;;7.40;;
691;SDS011;70475;50.084;8.576;2023-06-22T13:30:54;8.20;;;7.40;;
691;SDS011;70475;50.084;8.576;2023-06-22T13:33:21;8.67;;;7.40;;
691;SDS011;70475;50.084;8.576;2023-06-22T13:35:50;8.07;;;7.27;;
691;SDS011;70475;50.084;8.576;2023-06-22T13:38:18;7.47;;;6.77;;
691;SDS011;70475;50.084;8.576;2023-06-22T13:40:45;9.03;;;8.03;;
691;SDS011;70475;50.084;8.576;2023-06-22T13:43:14;7.73;;;6.80;;
691;SDS011;70475;50.084;8.576;2023-06-22T13:45:43;7.90;;;6.97;;
691;SDS011;70475;50.084;8.576;2023-06-22T13:48:10;8.30;;;7.57;;
691;SDS011;70475;50.084;8.576;2023-06-22T13:50:38;11.33;;;8.10;;
691;SDS011;70475;50.084;8.576;2023-06-22T13:53:07;13.03;;;11.07;;
691;SDS011;70475;50.084;8.576;2023-06-22T13:55:34;8.60;;;7.80;;
691;SDS011;70475;50.084;8.576;2023-06-22T13:58:02;7.47;;;6.77;;
691;SDS011;70475;50.084;8.576;2023-06-22T14:00:30;9.77;;;7.20;;
691;SDS011;70475;50.084;8.576;2023-06-22T14:02:58;9.50;;;8.27;;
691;SDS011;70475;50.084;8.576;2023-06-22T14:05:25;7.63;;;6.47;;
691;SDS011;70475;50.084;8.576;2023-06-22T14:07:53;10.17;;;7.30;;
691;SDS011;70475;50.084;8.576;2023-06-22T14:10:22;8.67;;;7.73;;
691;SDS011;70475;50.084;8.576;2023-06-22T14:12:50;9.03;;;7.27;;
691;SDS011;70475;50.084;8.576;2023-06-22T14:15:21;7.30;;;6.67;;
691;SDS011;70475;50.084;8.576;2023-06-22T14:17:49;10.33;;;7.37;;
691;SDS011;70475;50.084;8.576;2023-06-22T14:20:16;9.93;;;6.07;;
691;SDS011;70475;50.084;8.576;2023-06-22T14:22:44;10.10;;;5.87;;
691;SDS011;70475;50.084;8.576;2023-06-22T14:25:11;10.77;;;5.90;;
691;SDS011;70475;50.084;8.576;2023-06-22T14:27:40;7.87;;;4.57;;
691;SDS011;70475;50.084;8.576;2023-06-22T14:30:08;10.60;;;4.73;;
691;SDS011;70475;50.084;8.576;2023-06-22T14:32:36;9.00;;;4.67;;
691;SDS011;70475;50.084;8.576;2023-06-22T14:35:03;9.70;;;4.80;;
691;SDS011;70475;50.084;8.576;2023-06-22T14:37:32;11.20;;;4.30;;
691;SDS011;70475;50.084;8.576;2023-06-22T14:39:59;5.80;;;4.50;;
691;SDS011;70475;50.084;8.576;2023-06-22T14:42:27;7.73;;;5.17;;
691;SDS011;70475;50.084;8.576;2023-06-22T14:44:57;9.63;;;4.70;;
691;SDS011;70475;50.084;8.576;2023-06-22T14:47:25;8.60;;;4.87;;
691;SDS011;70475;50.084;8.576;2023-06-22T14:49:53;10.97;;;4.57;;
691;SDS011;70475;50.084;8.576;2023-06-22T14:52:21;7.70;;;4.57;;
691;SDS011;70475;50.084;8.576;2023-06-22T14:54:48;7.67;;;4.13;;
691;SDS011;70475;50.084;8.576;2023-06-22T14:57:18;10.83;;;4.40;;
691;SDS011;70475;50.084;8.576;2023-06-22T14:59:46;11.23;;;4.80;;
691;SDS011;70475;50.084;8.576;2023-06-22T15:02:16;9.60;;;4.30;;
691;SDS011;70475;50.084;8.576;2023-06-22T15:04:43;9.83;;;4.50;;
691;SDS011;70475;50.084;8.576;2023-06-22T15:07:11;9.07;;;4.67;;
691;SDS011;70475;50.084;8.576;2023-06-22T15:09:38;9.20;;;4.77;;
691;SDS011;70475;50.084;8.576;2023-06-22T15:12:08;6.60;;;4.77;;
691;SDS011;70475;50.084;8.576;2023-06-22T15:14:38;8.33;;;4.37;;
691;SDS011;70475;50.084;8.576;2023-06-22T15:17:06;7.40;;;3.80;;
691;SDS011;70475;50.084;8.576;2023-06-22T15:19:36;8.67;;;4.80;;